sensor_id;sensor_type;location;lat;lon;timestamp;P1;durP1;ratioP1;P2;durP2;ratioP2
2604;SDS011;1312;50.298;8.520;2024-01-25T00:00:31;18.20;;;6.93;;
2604;SDS011;1312;50.298;8.520;2024-01-25T00:02:59;20.97;;;8.77;;
2604;SDS011;1312;50.298;8.520;2024-01-25T00:05:27;20.00;;;7.50;;
2604;SDS011;1312;50.298;8.520;2024-01-25T00:07:55;23.20;;;8.70;;
2604;SDS011;1312;50.298;8.520;2024-01-25T00:10:23;20.17;;;6.87;;
2604;SDS011;1312;50.298;8.520;2024-01-25T00:12:52;19.80;;;7.43;;
2604;SDS011;1312;50.298;8.520;2024-01-25T00:15:20;20.60;;;8.23;;
2604;SDS011;1312;50.298;8.520;2024-01-25T00:17:48;19.70;;;9.60;;
2604;SDS011;1312;50.298;8.520;2024-01-25T00:20:16;26.83;;;8.87;;
2604;SDS011;1312;50.298;8.520;2024-01-25T00:22:44;21.20;;;8.00;;
2604;SDS011;1312;50.298;8.520;2024-01-25T00:25:12;21.73;;;9.27;;
2604;SDS011;1312;50.298;8.520;2024-01-25T00:27:40;19.00;;;8.10;;
2604;SDS011;1312;50.298;8.520;2024-01-25T00:30:12;16.47;;;7.17;;
2604;SDS011;1312;50.298;8.520;2024-01-25T00:32:41;19.07;;;8.07;;
2604;SDS011;1312;50.298;8.520;2024-01-25T00:35:09;16.43;;;7.93;;
2604;SDS011;1312;50.298;8.520;2024-01-25T00:37:40;18.63;;;7.80;;
2604;SDS011;1312;50.298;8.520;2024-01-25T00:40:08;17.63;;;7.53;;
2604;SDS011;1312;50.298;8.520;2024-01-25T00:42:39;16.53;;;6.97;;
2604;SDS011;1312;50.298;8.520;2024-01-25T00:45:09;17.00;;;7.73;;
2604;SDS011;1312;50.298;8.520;2024-01-25T00:47:40;23.23;;;8.60;;
2604;SDS011;1312;50.298;8.520;2024-01-25T00:50:08;18.80;;;8.50;;
2604;SDS011;1312;50.298;8.520;2024-01-25T00:52:37;18.13;;;8.40;;
2604;SDS011;1312;50.298;8.520;2024-01-25T00:55:06;17.00;;;7.40;;
2604;SDS011;1312;50.298;8.520;2024-01-25T00:57:35;16.53;;;8.30;;
2604;SDS011;1312;50.298;8.520;2024-01-25T01:00:04;17.17;;;7.20;;
2604;SDS011;1312;50.298;8.520;2024-01-25T01:02:35;22.93;;;14.70;;
2604;SDS011;1312;50.298;8.520;2024-01-25T01:05:11;20.93;;;14.43;;
2604;SDS011;1312;50.298;8.520;2024-01-25T01:07:41;26.77;;;15.27;;
2604;SDS011;1312;50.298;8.520;2024-01-25T01:10:09;21.63;;;16.03;;
2604;SDS011;1312;50.298;8.520;2024-01-25T01:12:37;21.73;;;15.73;;
2604;SDS011;1312;50.298;8.520;2024-01-25T01:15:05;21.97;;;14.70;;
2604;SDS011;1312;50.298;8.520;2024-01-25T01:17:34;16.77;;;14.07;;
2604;SDS011;1312;50.298;8.520;2024-01-25T01:20:02;22.43;;;15.40;;
2604;SDS011;1312;50.298;8.520;2024-01-25T01:22:32;22.70;;;15.07;;
2604;SDS011;1312;50.298;8.520;2024-01-25T01:25:00;23.53;;;15.23;;
2604;SDS011;1312;50.298;8.520;2024-01-25T01:27:28;20.80;;;14.37;;
2604;SDS011;1312;50.298;8.520;2024-01-25T01:29:56;26.10;;;15.07;;
2604;SDS011;1312;50.298;8.520;2024-01-25T01:32:23;19.07;;;16.27;;
2604;SDS011;1312;50.298;8.520;2024-01-25T01:34:52;19.67;;;15.60;;
2604;SDS011;1312;50.298;8.520;2024-01-25T01:37:19;19.47;;;14.90;;
2604;SDS011;1312;50.298;8.520;2024-01-25T01:39:48;16.60;;;14.90;;
2604;SDS011;1312;50.298;8.520;2024-01-25T01:42:16;22.53;;;14.90;;
2604;SDS011;1312;50.298;8.520;2024-01-25T01:44:45;19.30;;;15.93;;
2604;SDS011;1312;50.298;8.520;2024-01-25T01:47:12;28.30;;;17.20;;
2604;SDS011;1312;50.298;8.520;2024-01-25T01:49:41;17.93;;;15.40;;
2604;SDS011;1312;50.298;8.520;2024-01-25T01:52:10;19.97;;;15.30;;
2604;SDS011;1312;50.298;8.520;2024-01-25T01:54:39;22.73;;;17.00;;
2604;SDS011;1312;50.298;8.520;2024-01-25T01:57:09;18.80;;;14.80;;
2604;SDS011;1312;50.298;8.520;2024-01-25T01:59:37;17.87;;;15.83;;
2604;SDS011;1312;50.298;8.520;2024-01-25T02:02:05;28.87;;;9.63;;
2604;SDS011;1312;50.298;8.520;2024-01-25T02:04:33;21.53;;;8.40;;
2604;SDS011;1312;50.298;8.520;2024-01-25T02:07:01;18.90;;;9.13;;
2604;SDS011;1312;50.298;8.520;2024-01-25T02:09:30;15.67;;;7.70;;
2604;SDS011;1312;50.298;8.520;2024-01-25T02:11:58;21.63;;;9.10;;
2604;SDS011;1312;50.298;8.520;2024-01-25T02:14:30;24.67;;;9.70;;
2604;SDS011;1312;50.298;8.520;2024-01-25T02:16:58;21.30;;;8.37;;
2604;SDS011;1312;50.298;8.520;2024-01-25T02:19:26;20.73;;;9.10;;
2604;SDS011;1312;50.298;8.520;2024-01-25T02:21:54;18.53;;;8.07;;
2604;SDS011;1312;50.298;8.520;2024-01-25T02:24:28;22.87;;;8.80;;
2604;SDS011;1312;50.298;8.520;2024-01-25T02:26:56;21.17;;;8.33;;
2604;SDS011;1312;50.298;8.520;2024-01-25T02:29:24;22.73;;;9.10;;
2604;SDS011;1312;50.298;8.520;2024-01-25T02:31:52;23.13;;;8.00;;
2604;SDS011;1312;50.298;8.520;2024-01-25T02:34:19;22.73;;;8.40;;
2604;SDS011;1312;50.298;8.520;2024-01-25T02:36:47;27.07;;;8.63;;
2604;SDS011;1312;50.298;8.520;2024-01-25T02:39:16;20.10;;;8.40;;
2604;SDS011;1312;50.298;8.520;2024-01-25T02:41:45;24.10;;;8.90;;
2604;SDS011;1312;50.298;8.520;2024-01-25T02:44:13;15.97;;;7.40;;
2604;SDS011;1312;50.298;8.520;2024-01-25T02:46:41;24.03;;;9.23;;
2604;SDS011;1312;50.298;8.520;2024-01-25T02:49:11;17.40;;;7.97;;
2604;SDS011;1312;50.298;8.520;2024-01-25T02:51:39;26.40;;;8.90;;
2604;SDS011;1312;50.298;8.520;2024-01-25T02:54:07;20.33;;;8.20;;
2604;SDS011;1312;50.298;8.520;2024-01-25T02:56:35;26.10;;;10.20;;
2604;SDS011;1312;50.298;8.520;2024-01-25T02:59:04;23.80;;;9.63;;
2604;SDS011;1312;50.298;8.520;2024-01-25T03:01:37;19.13;;;7.90;;
2604;SDS011;1312;50.298;8.520;2024-01-25T03:04:05;23.10;;;8.10;;
2604;SDS011;1312;50.298;8.520;2024-01-25T03:06:33;23.83;;;7.87;;
2604;SDS011;1312;50.298;8.520;2024-01-25T03:09:02;22.17;;;7.77;;
2604;SDS011;1312;50.298;8.520;2024-01-25T03:11:31;17.00;;;7.53;;
2604;SDS011;1312;50.298;8.520;2024-01-25T03:13:59;19.73;;;7.30;;
2604;SDS011;1312;50.298;8.520;2024-01-25T03:16:28;21.87;;;7.60;;
2604;SDS011;1312;50.298;8.520;2024-01-25T03:18:56;23.73;;;8.60;;
2604;SDS011;1312;50.298;8.520;2024-01-25T03:21:24;18.50;;;7.33;;
2604;SDS011;1312;50.298;8.520;2024-01-25T03:23:52;27.30;;;7.87;;
2604;SDS011;1312;50.298;8.520;2024-01-25T03:26:20;18.27;;;7.77;;
2604;SDS011;1312;50.298;8.520;2024-01-25T03:28:48;22.40;;;7.53;;
2604;SDS011;1312;50.298;8.520;2024-01-25T03:31:16;18.63;;;7.70;;
2604;SDS011;1312;50.298;8.520;2024-01-25T03:33:45;20.17;;;8.30;;
2604;SDS011;1312;50.298;8.520;2024-01-25T03:36:14;18.63;;;6.87;;
2604;SDS011;1312;50.298;8.520;2024-01-25T03:38:42;19.30;;;8.00;;
2604;SDS011;1312;50.298;8.520;2024-01-25T03:41:10;23.47;;;7.50;;
2604;SDS011;1312;50.298;8.520;2024-01-25T03:43:38;19.60;;;8.13;;
2604;SDS011;1312;50.298;8.520;2024-01-25T03:46:10;16.77;;;7.40;;
2604;SDS011;1312;50.298;8.520;2024-01-25T03:48:38;22.33;;;7.27;;
2604;SDS011;1312;50.298;8.520;2024-01-25T03:51:08;21.83;;;7.40;;
2604;SDS011;1312;50.298;8.520;2024-01-25T03:53:36;22.60;;;8.50;;
2604;SDS011;1312;50.298;8.520;2024-01-25T03:56:04;27.40;;;9.10;;
2604;SDS011;1312;50.298;8.520;2024-01-25T03:58:38;20.53;;;8.40;;
2604;SDS011;1312;50.298;8.520;2024-01-25T04:01:06;28.67;;;8.40;;
2604;SDS011;1312;50.298;8.520;2024-01-25T04:03:34;28.83;;;12.13;;
2604;SDS011;1312;50.298;8.520;2024-01-25T04:06:03;20.60;;;8.27;;
2604;SDS011;1312;50.298;8.520;2024-01-25T04:08:33;24.40;;;7.60;;
2604;SDS011;1312;50.298;8.520;2024-01-25T04:11:01;27.33;;;9.33;;
2604;SDS011;1312;50.298;8.520;2024-01-25T04:13:29;23.20;;;8.70;;
2604;SDS011;1312;50.298;8.520;2024-01-25T04:15:57;25.27;;;8.30;;
2604;SDS011;1312;50.298;8.520;2024-01-25T04:18:25;24.13;;;9.10;;
2604;SDS011;1312;50.298;8.520;2024-01-25T04:20:53;23.43;;;8.37;;
2604;SDS011;1312;50.298;8.520;2024-01-25T04:23:21;25.70;;;7.90;;
2604;SDS011;1312;50.298;8.520;2024-01-25T04:25:50;22.50;;;8.30;;
2604;SDS011;1312;50.298;8.520;2024-01-25T04:28:21;30.50;;;9.30;;
2604;SDS011;1312;50.298;8.520;2024-01-25T04:30:49;26.83;;;8.40;;
2604;SDS011;1312;50.298;8.520;2024-01-25T04:33:17;18.70;;;7.77;;
2604;SDS011;1312;50.298;8.520;2024-01-25T04:35:45;18.60;;;9.07;;
2604;SDS011;1312;50.298;8.520;2024-01-25T04:38:13;25.97;;;8.10;;
2604;SDS011;1312;50.298;8.520;2024-01-25T04:40:41;18.47;;;8.73;;
2604;SDS011;1312;50.298;8.520;2024-01-25T04:43:11;26.83;;;8.63;;
2604;SDS011;1312;50.298;8.520;2024-01-25T04:45:39;22.33;;;10.10;;
2604;SDS011;1312;50.298;8.520;2024-01-25T04:48:07;22.07;;;9.50;;
2604;SDS011;1312;50.298;8.520;2024-01-25T04:50:35;28.43;;;9.57;;
2604;SDS011;1312;50.298;8.520;2024-01-25T04:53:03;22.20;;;9.20;;
2604;SDS011;1312;50.298;8.520;2024-01-25T04:55:31;19.70;;;8.10;;
2604;SDS011;1312;50.298;8.520;2024-01-25T04:57:59;23.43;;;7.83;;
2604;SDS011;1312;50.298;8.520;2024-01-25T05:00:28;22.53;;;7.87;;
2604;SDS011;1312;50.298;8.520;2024-01-25T05:02:56;20.80;;;8.00;;
2604;SDS011;1312;50.298;8.520;2024-01-25T05:05:24;17.40;;;7.70;;
2604;SDS011;1312;50.298;8.520;2024-01-25T05:07:52;19.13;;;8.53;;
2604;SDS011;1312;50.298;8.520;2024-01-25T05:10:20;26.07;;;8.00;;
2604;SDS011;1312;50.298;8.520;2024-01-25T05:12:49;27.87;;;9.07;;
2604;SDS011;1312;50.298;8.520;2024-01-25T05:15:17;21.80;;;8.50;;
2604;SDS011;1312;50.298;8.520;2024-01-25T05:17:46;26.87;;;8.57;;
2604;SDS011;1312;50.298;8.520;2024-01-25T05:20:14;27.30;;;9.83;;
2604;SDS011;1312;50.298;8.520;2024-01-25T05:22:44;35.00;;;8.93;;
2604;SDS011;1312;50.298;8.520;2024-01-25T05:25:12;26.53;;;8.97;;
2604;SDS011;1312;50.298;8.520;2024-01-25T05:27:40;23.80;;;9.50;;
2604;SDS011;1312;50.298;8.520;2024-01-25T05:30:09;25.23;;;9.60;;
2604;SDS011;1312;50.298;8.520;2024-01-25T05:32:37;26.77;;;10.20;;
2604;SDS011;1312;50.298;8.520;2024-01-25T05:35:07;22.10;;;8.80;;
2604;SDS011;1312;50.298;8.520;2024-01-25T05:37:36;25.30;;;9.73;;
2604;SDS011;1312;50.298;8.520;2024-01-25T05:40:04;27.43;;;8.23;;
2604;SDS011;1312;50.298;8.520;2024-01-25T05:42:33;22.63;;;8.20;;
2604;SDS011;1312;50.298;8.520;2024-01-25T05:45:01;23.37;;;8.20;;
2604;SDS011;1312;50.298;8.520;2024-01-25T05:47:29;19.67;;;8.40;;
2604;SDS011;1312;50.298;8.520;2024-01-25T05:49:58;28.17;;;9.53;;
2604;SDS011;1312;50.298;8.520;2024-01-25T05:52:27;22.27;;;9.60;;
2604;SDS011;1312;50.298;8.520;2024-01-25T05:54:55;27.03;;;9.57;;
2604;SDS011;1312;50.298;8.520;2024-01-25T05:57:27;31.87;;;9.77;;
2604;SDS011;1312;50.298;8.520;2024-01-25T05:59:55;20.00;;;8.93;;
2604;SDS011;1312;50.298;8.520;2024-01-25T06:02:23;25.10;;;9.50;;
2604;SDS011;1312;50.298;8.520;2024-01-25T06:04:51;22.90;;;10.87;;
2604;SDS011;1312;50.298;8.520;2024-01-25T06:07:19;37.63;;;11.17;;
2604;SDS011;1312;50.298;8.520;2024-01-25T06:09:49;21.13;;;10.60;;
2604;SDS011;1312;50.298;8.520;2024-01-25T06:12:17;21.63;;;9.57;;
2604;SDS011;1312;50.298;8.520;2024-01-25T06:14:44;26.67;;;10.90;;
2604;SDS011;1312;50.298;8.520;2024-01-25T06:17:12;26.13;;;10.27;;
2604;SDS011;1312;50.298;8.520;2024-01-25T06:19:40;27.03;;;10.00;;
2604;SDS011;1312;50.298;8.520;2024-01-25T06:22:08;25.93;;;9.80;;
2604;SDS011;1312;50.298;8.520;2024-01-25T06:24:38;25.70;;;9.30;;
2604;SDS011;1312;50.298;8.520;2024-01-25T06:27:09;30.20;;;10.10;;
2604;SDS011;1312;50.298;8.520;2024-01-25T06:29:37;30.23;;;10.93;;
2604;SDS011;1312;50.298;8.520;2024-01-25T06:32:05;18.47;;;10.20;;
2604;SDS011;1312;50.298;8.520;2024-01-25T06:34:39;25.40;;;9.67;;
2604;SDS011;1312;50.298;8.520;2024-01-25T06:37:07;28.23;;;11.27;;
2604;SDS011;1312;50.298;8.520;2024-01-25T06:39:38;28.13;;;10.63;;
2604;SDS011;1312;50.298;8.520;2024-01-25T06:42:06;24.03;;;9.80;;
2604;SDS011;1312;50.298;8.520;2024-01-25T06:44:35;23.60;;;9.63;;
2604;SDS011;1312;50.298;8.520;2024-01-25T06:47:03;28.30;;;11.00;;
2604;SDS011;1312;50.298;8.520;2024-01-25T06:49:32;24.67;;;10.43;;
2604;SDS011;1312;50.298;8.520;2024-01-25T06:52:00;25.30;;;10.60;;
2604;SDS011;1312;50.298;8.520;2024-01-25T06:54:29;25.90;;;11.00;;
2604;SDS011;1312;50.298;8.520;2024-01-25T06:56:58;30.93;;;11.03;;
2604;SDS011;1312;50.298;8.520;2024-01-25T06:59:25;27.33;;;10.03;;
2604;SDS011;1312;50.298;8.520;2024-01-25T07:01:55;30.17;;;11.80;;
2604;SDS011;1312;50.298;8.520;2024-01-25T07:04:24;29.37;;;10.83;;
2604;SDS011;1312;50.298;8.520;2024-01-25T07:06:52;30.20;;;12.47;;
2604;SDS011;1312;50.298;8.520;2024-01-25T07:09:20;24.90;;;10.63;;
2604;SDS011;1312;50.298;8.520;2024-01-25T07:11:48;35.33;;;12.97;;
2604;SDS011;1312;50.298;8.520;2024-01-25T07:14:16;31.87;;;12.97;;
2604;SDS011;1312;50.298;8.520;2024-01-25T07:16:44;22.67;;;10.97;;
2604;SDS011;1312;50.298;8.520;2024-01-25T07:19:13;20.37;;;10.90;;
2604;SDS011;1312;50.298;8.520;2024-01-25T07:21:41;27.63;;;11.63;;
2604;SDS011;1312;50.298;8.520;2024-01-25T07:24:12;28.43;;;11.53;;
2604;SDS011;1312;50.298;8.520;2024-01-25T07:26:40;28.13;;;10.47;;
2604;SDS011;1312;50.298;8.520;2024-01-25T07:29:08;23.73;;;10.10;;
2604;SDS011;1312;50.298;8.520;2024-01-25T07:31:36;27.83;;;11.93;;
2604;SDS011;1312;50.298;8.520;2024-01-25T07:34:04;26.83;;;11.23;;
2604;SDS011;1312;50.298;8.520;2024-01-25T07:36:33;26.23;;;9.93;;
2604;SDS011;1312;50.298;8.520;2024-01-25T07:39:01;26.57;;;10.60;;
2604;SDS011;1312;50.298;8.520;2024-01-25T07:41:29;31.63;;;12.07;;
2604;SDS011;1312;50.298;8.520;2024-01-25T07:43:57;25.90;;;11.47;;
2604;SDS011;1312;50.298;8.520;2024-01-25T07:46:25;26.50;;;10.60;;
2604;SDS011;1312;50.298;8.520;2024-01-25T07:48:53;28.80;;;11.40;;
2604;SDS011;1312;50.298;8.520;2024-01-25T07:51:21;21.70;;;10.67;;
2604;SDS011;1312;50.298;8.520;2024-01-25T07:53:55;32.27;;;11.20;;
2604;SDS011;1312;50.298;8.520;2024-01-25T07:56:23;19.97;;;10.23;;
2604;SDS011;1312;50.298;8.520;2024-01-25T07:58:51;20.80;;;9.30;;
2604;SDS011;1312;50.298;8.520;2024-01-25T08:01:19;24.63;;;10.00;;
2604;SDS011;1312;50.298;8.520;2024-01-25T08:03:48;19.73;;;10.37;;
2604;SDS011;1312;50.298;8.520;2024-01-25T08:06:16;24.87;;;9.47;;
2604;SDS011;1312;50.298;8.520;2024-01-25T08:08:44;20.57;;;9.37;;
2604;SDS011;1312;50.298;8.520;2024-01-25T08:11:14;24.63;;;9.80;;
2604;SDS011;1312;50.298;8.520;2024-01-25T08:13:44;20.17;;;10.13;;
2604;SDS011;1312;50.298;8.520;2024-01-25T08:16:13;19.23;;;9.57;;
2604;SDS011;1312;50.298;8.520;2024-01-25T08:18:46;22.30;;;10.63;;
2604;SDS011;1312;50.298;8.520;2024-01-25T08:21:14;20.73;;;10.77;;
2604;SDS011;1312;50.298;8.520;2024-01-25T08:23:42;23.33;;;9.50;;
2604;SDS011;1312;50.298;8.520;2024-01-25T08:26:10;20.10;;;9.97;;
2604;SDS011;1312;50.298;8.520;2024-01-25T08:28:40;17.93;;;9.27;;
2604;SDS011;1312;50.298;8.520;2024-01-25T08:31:10;20.10;;;9.53;;
2604;SDS011;1312;50.298;8.520;2024-01-25T08:33:39;24.30;;;10.23;;
2604;SDS011;1312;50.298;8.520;2024-01-25T08:36:08;21.30;;;8.67;;
2604;SDS011;1312;50.298;8.520;2024-01-25T08:38:36;23.17;;;9.93;;
2604;SDS011;1312;50.298;8.520;2024-01-25T08:41:04;19.43;;;7.70;;
2604;SDS011;1312;50.298;8.520;2024-01-25T08:43:32;18.27;;;9.63;;
2604;SDS011;1312;50.298;8.520;2024-01-25T08:46:02;27.93;;;9.10;;
2604;SDS011;1312;50.298;8.520;2024-01-25T08:48:31;22.90;;;9.00;;
2604;SDS011;1312;50.298;8.520;2024-01-25T08:50:59;18.30;;;9.00;;
2604;SDS011;1312;50.298;8.520;2024-01-25T08:53:27;26.20;;;9.60;;
2604;SDS011;1312;50.298;8.520;2024-01-25T08:55:55;28.07;;;9.10;;
2604;SDS011;1312;50.298;8.520;2024-01-25T08:58:23;25.93;;;10.43;;
2604;SDS011;1312;50.298;8.520;2024-01-25T09:00:51;21.50;;;8.80;;
2604;SDS011;1312;50.298;8.520;2024-01-25T09:03:20;26.43;;;10.20;;
2604;SDS011;1312;50.298;8.520;2024-01-25T09:05:49;16.93;;;9.63;;
2604;SDS011;1312;50.298;8.520;2024-01-25T09:08:17;18.43;;;9.80;;
2604;SDS011;1312;50.298;8.520;2024-01-25T09:10:45;28.03;;;19.60;;
2604;SDS011;1312;50.298;8.520;2024-01-25T09:13:13;25.87;;;13.33;;
2604;SDS011;1312;50.298;8.520;2024-01-25T09:15:41;17.20;;;9.93;;
2604;SDS011;1312;50.298;8.520;2024-01-25T09:18:10;20.47;;;9.20;;
2604;SDS011;1312;50.298;8.520;2024-01-25T09:20:40;23.37;;;10.57;;
2604;SDS011;1312;50.298;8.520;2024-01-25T09:23:14;23.67;;;9.43;;
2604;SDS011;1312;50.298;8.520;2024-01-25T09:25:43;19.70;;;8.77;;
2604;SDS011;1312;50.298;8.520;2024-01-25T09:28:12;22.37;;;10.00;;
2604;SDS011;1312;50.298;8.520;2024-01-25T09:30:41;26.40;;;14.40;;
2604;SDS011;1312;50.298;8.520;2024-01-25T09:33:09;25.20;;;9.10;;
2604;SDS011;1312;50.298;8.520;2024-01-25T09:35:37;24.03;;;11.07;;
2604;SDS011;1312;50.298;8.520;2024-01-25T09:38:07;20.63;;;9.47;;
2604;SDS011;1312;50.298;8.520;2024-01-25T09:40:35;20.67;;;9.20;;
2604;SDS011;1312;50.298;8.520;2024-01-25T09:43:04;20.60;;;9.20;;
2604;SDS011;1312;50.298;8.520;2024-01-25T09:45:32;23.87;;;9.07;;
2604;SDS011;1312;50.298;8.520;2024-01-25T09:48:01;15.63;;;8.80;;
2604;SDS011;1312;50.298;8.520;2024-01-25T09:50:31;21.37;;;9.17;;
2604;SDS011;1312;50.298;8.520;2024-01-25T09:53:00;21.03;;;8.97;;
2604;SDS011;1312;50.298;8.520;2024-01-25T09:55:31;23.00;;;9.77;;
2604;SDS011;1312;50.298;8.520;2024-01-25T09:58:02;20.87;;;9.10;;
2604;SDS011;1312;50.298;8.520;2024-01-25T10:00:34;18.87;;;9.53;;
2604;SDS011;1312;50.298;8.520;2024-01-25T10:03:02;26.67;;;8.83;;
2604;SDS011;1312;50.298;8.520;2024-01-25T10:05:30;25.70;;;11.40;;
2604;SDS011;1312;50.298;8.520;2024-01-25T10:07:58;19.57;;;8.40;;
2604;SDS011;1312;50.298;8.520;2024-01-25T10:10:31;23.40;;;8.97;;
2604;SDS011;1312;50.298;8.520;2024-01-25T10:13:01;21.27;;;8.30;;
2604;SDS011;1312;50.298;8.520;2024-01-25T10:15:29;22.37;;;8.20;;
2604;SDS011;1312;50.298;8.520;2024-01-25T10:17:57;25.63;;;8.83;;
2604;SDS011;1312;50.298;8.520;2024-01-25T10:20:44;19.20;;;9.60;;
2604;SDS011;1312;50.298;8.520;2024-01-25T10:23:13;22.40;;;9.33;;
2604;SDS011;1312;50.298;8.520;2024-01-25T10:25:42;15.73;;;8.23;;
2604;SDS011;1312;50.298;8.520;2024-01-25T10:28:11;16.20;;;8.90;;
2604;SDS011;1312;50.298;8.520;2024-01-25T10:30:40;15.30;;;7.63;;
2604;SDS011;1312;50.298;8.520;2024-01-25T10:33:07;14.83;;;8.10;;
2604;SDS011;1312;50.298;8.520;2024-01-25T10:35:37;21.53;;;9.33;;
2604;SDS011;1312;50.298;8.520;2024-01-25T10:38:05;21.83;;;8.90;;
2604;SDS011;1312;50.298;8.520;2024-01-25T10:40:33;21.73;;;8.83;;
2604;SDS011;1312;50.298;8.520;2024-01-25T10:43:03;19.07;;;8.43;;
2604;SDS011;1312;50.298;8.520;2024-01-25T10:45:31;21.27;;;8.80;;
2604;SDS011;1312;50.298;8.520;2024-01-25T10:48:00;20.00;;;7.60;;
2604;SDS011;1312;50.298;8.520;2024-01-25T10:50:27;23.43;;;8.03;;
2604;SDS011;1312;50.298;8.520;2024-01-25T10:52:56;19.77;;;7.77;;
2604;SDS011;1312;50.298;8.520;2024-01-25T10:55:25;16.77;;;7.30;;
2604;SDS011;1312;50.298;8.520;2024-01-25T10:57:53;16.53;;;7.77;;
2604;SDS011;1312;50.298;8.520;2024-01-25T11:00:23;16.50;;;7.93;;
2604;SDS011;1312;50.298;8.520;2024-01-25T11:02:51;18.87;;;11.83;;
2604;SDS011;1312;50.298;8.520;2024-01-25T11:05:19;19.57;;;12.53;;
2604;SDS011;1312;50.298;8.520;2024-01-25T11:07:48;13.57;;;10.40;;
2604;SDS011;1312;50.298;8.520;2024-01-25T11:10:18;25.67;;;7.40;;
2604;SDS011;1312;50.298;8.520;2024-01-25T11:12:50;13.93;;;8.37;;
2604;SDS011;1312;50.298;8.520;2024-01-25T11:15:24;20.27;;;12.60;;
2604;SDS011;1312;50.298;8.520;2024-01-25T11:17:57;16.20;;;11.00;;
2604;SDS011;1312;50.298;8.520;2024-01-25T11:20:26;18.87;;;11.73;;
2604;SDS011;1312;50.298;8.520;2024-01-25T11:22:56;18.37;;;12.20;;
2604;SDS011;1312;50.298;8.520;2024-01-25T11:25:28;18.77;;;11.20;;
2604;SDS011;1312;50.298;8.520;2024-01-25T11:27:57;21.80;;;12.40;;
2604;SDS011;1312;50.298;8.520;2024-01-25T11:30:27;14.37;;;11.17;;
2604;SDS011;1312;50.298;8.520;2024-01-25T11:32:56;19.03;;;11.17;;
2604;SDS011;1312;50.298;8.520;2024-01-25T11:35:24;14.63;;;11.00;;
2604;SDS011;1312;50.298;8.520;2024-01-25T11:37:53;20.20;;;11.87;;
2604;SDS011;1312;50.298;8.520;2024-01-25T11:40:22;15.63;;;10.77;;
2604;SDS011;1312;50.298;8.520;2024-01-25T11:42:50;13.70;;;10.80;;
2604;SDS011;1312;50.298;8.520;2024-01-25T11:45:18;14.90;;;7.90;;
2604;SDS011;1312;50.298;8.520;2024-01-25T11:47:47;15.70;;;6.13;;
2604;SDS011;1312;50.298;8.520;2024-01-25T11:50:15;15.17;;;6.77;;
2604;SDS011;1312;50.298;8.520;2024-01-25T11:52:44;13.03;;;9.10;;
2604;SDS011;1312;50.298;8.520;2024-01-25T11:55:12;13.77;;;6.47;;
2604;SDS011;1312;50.298;8.520;2024-01-25T11:57:40;13.10;;;7.30;;
2604;SDS011;1312;50.298;8.520;2024-01-25T12:00:09;13.23;;;6.03;;
2604;SDS011;1312;50.298;8.520;2024-01-25T12:02:40;19.07;;;7.63;;
2604;SDS011;1312;50.298;8.520;2024-01-25T12:05:11;14.40;;;6.40;;
2604;SDS011;1312;50.298;8.520;2024-01-25T12:07:40;14.93;;;6.37;;
2604;SDS011;1312;50.298;8.520;2024-01-25T12:10:10;14.33;;;5.97;;
2604;SDS011;1312;50.298;8.520;2024-01-25T12:12:43;15.10;;;8.57;;
2604;SDS011;1312;50.298;8.520;2024-01-25T12:15:11;14.53;;;7.13;;
2604;SDS011;1312;50.298;8.520;2024-01-25T12:17:39;23.37;;;8.37;;
2604;SDS011;1312;50.298;8.520;2024-01-25T12:20:07;13.30;;;6.33;;
2604;SDS011;1312;50.298;8.520;2024-01-25T12:22:40;10.73;;;6.77;;
2604;SDS011;1312;50.298;8.520;2024-01-25T12:25:08;13.10;;;7.30;;
2604;SDS011;1312;50.298;8.520;2024-01-25T12:27:39;18.43;;;7.37;;
2604;SDS011;1312;50.298;8.520;2024-01-25T12:30:08;10.77;;;6.30;;
2604;SDS011;1312;50.298;8.520;2024-01-25T12:32:37;14.07;;;6.77;;
2604;SDS011;1312;50.298;8.520;2024-01-25T12:35:05;15.47;;;7.47;;
2604;SDS011;1312;50.298;8.520;2024-01-25T12:37:34;13.10;;;6.90;;
2604;SDS011;1312;50.298;8.520;2024-01-25T12:40:06;13.30;;;7.00;;
2604;SDS011;1312;50.298;8.520;2024-01-25T12:42:34;13.60;;;7.03;;
2604;SDS011;1312;50.298;8.520;2024-01-25T12:45:03;11.50;;;7.10;;
2604;SDS011;1312;50.298;8.520;2024-01-25T12:47:33;14.33;;;6.10;;
2604;SDS011;1312;50.298;8.520;2024-01-25T12:50:01;14.03;;;7.10;;
2604;SDS011;1312;50.298;8.520;2024-01-25T12:52:29;14.60;;;7.63;;
2604;SDS011;1312;50.298;8.520;2024-01-25T12:54:57;15.20;;;6.63;;
2604;SDS011;1312;50.298;8.520;2024-01-25T12:57:27;12.90;;;6.60;;
2604;SDS011;1312;50.298;8.520;2024-01-25T12:59:55;12.30;;;6.30;;
2604;SDS011;1312;50.298;8.520;2024-01-25T13:02:24;14.57;;;6.20;;
2604;SDS011;1312;50.298;8.520;2024-01-25T13:04:52;17.20;;;6.33;;
2604;SDS011;1312;50.298;8.520;2024-01-25T13:07:21;15.97;;;5.67;;
2604;SDS011;1312;50.298;8.520;2024-01-25T13:09:49;15.53;;;6.20;;
2604;SDS011;1312;50.298;8.520;2024-01-25T13:12:17;18.83;;;6.10;;
2604;SDS011;1312;50.298;8.520;2024-01-25T13:14:46;14.80;;;7.33;;
2604;SDS011;1312;50.298;8.520;2024-01-25T13:17:14;12.73;;;5.70;;
2604;SDS011;1312;50.298;8.520;2024-01-25T13:19:42;18.10;;;6.50;;
2604;SDS011;1312;50.298;8.520;2024-01-25T13:22:10;10.87;;;6.70;;
2604;SDS011;1312;50.298;8.520;2024-01-25T13:24:38;12.50;;;6.47;;
2604;SDS011;1312;50.298;8.520;2024-01-25T13:27:06;13.73;;;7.17;;
2604;SDS011;1312;50.298;8.520;2024-01-25T13:29:34;16.00;;;6.47;;
2604;SDS011;1312;50.298;8.520;2024-01-25T13:32:03;9.93;;;5.37;;
2604;SDS011;1312;50.298;8.520;2024-01-25T13:34:33;9.93;;;5.50;;
2604;SDS011;1312;50.298;8.520;2024-01-25T13:37:01;11.07;;;6.00;;
2604;SDS011;1312;50.298;8.520;2024-01-25T13:39:29;13.00;;;6.00;;
2604;SDS011;1312;50.298;8.520;2024-01-25T13:41:57;10.70;;;5.97;;
2604;SDS011;1312;50.298;8.520;2024-01-25T13:44:25;12.60;;;6.97;;
2604;SDS011;1312;50.298;8.520;2024-01-25T13:46:53;15.17;;;5.97;;
2604;SDS011;1312;50.298;8.520;2024-01-25T13:49:23;13.00;;;6.20;;
2604;SDS011;1312;50.298;8.520;2024-01-25T13:51:51;18.63;;;5.93;;
2604;SDS011;1312;50.298;8.520;2024-01-25T13:54:20;11.83;;;7.13;;
2604;SDS011;1312;50.298;8.520;2024-01-25T13:56:48;16.03;;;5.47;;
2604;SDS011;1312;50.298;8.520;2024-01-25T13:59:16;13.43;;;5.73;;
2604;SDS011;1312;50.298;8.520;2024-01-25T14:01:44;11.47;;;5.73;;
2604;SDS011;1312;50.298;8.520;2024-01-25T14:04:12;16.17;;;6.50;;
2604;SDS011;1312;50.298;8.520;2024-01-25T14:06:42;15.70;;;6.30;;
2604;SDS011;1312;50.298;8.520;2024-01-25T14:09:10;8.83;;;6.30;;
2604;SDS011;1312;50.298;8.520;2024-01-25T14:11:39;10.83;;;6.20;;
2604;SDS011;1312;50.298;8.520;2024-01-25T14:14:07;13.80;;;6.03;;
2604;SDS011;1312;50.298;8.520;2024-01-25T14:16:36;13.80;;;6.57;;
2604;SDS011;1312;50.298;8.520;2024-01-25T14:19:03;9.87;;;6.30;;
2604;SDS011;1312;50.298;8.520;2024-01-25T14:21:32;12.97;;;5.90;;
2604;SDS011;1312;50.298;8.520;2024-01-25T14:24:01;15.90;;;7.13;;
2604;SDS011;1312;50.298;8.520;2024-01-25T14:26:29;11.13;;;5.90;;
2604;SDS011;1312;50.298;8.520;2024-01-25T14:28:57;14.80;;;6.20;;
2604;SDS011;1312;50.298;8.520;2024-01-25T14:31:25;9.07;;;6.23;;
2604;SDS011;1312;50.298;8.520;2024-01-25T14:33:54;15.97;;;6.20;;
2604;SDS011;1312;50.298;8.520;2024-01-25T14:36:22;9.63;;;5.93;;
2604;SDS011;1312;50.298;8.520;2024-01-25T14:38:50;11.43;;;6.37;;
2604;SDS011;1312;50.298;8.520;2024-01-25T14:41:19;12.27;;;5.60;;
2604;SDS011;1312;50.298;8.520;2024-01-25T14:43:47;14.70;;;6.50;;
2604;SDS011;1312;50.298;8.520;2024-01-25T14:46:15;20.33;;;7.03;;
2604;SDS011;1312;50.298;8.520;2024-01-25T14:48:44;12.47;;;6.87;;
2604;SDS011;1312;50.298;8.520;2024-01-25T14:51:12;12.17;;;5.70;;
2604;SDS011;1312;50.298;8.520;2024-01-25T14:53:40;10.93;;;6.00;;
2604;SDS011;1312;50.298;8.520;2024-01-25T14:56:08;13.03;;;6.80;;
2604;SDS011;1312;50.298;8.520;2024-01-25T14:58:40;15.50;;;6.03;;
2604;SDS011;1312;50.298;8.520;2024-01-25T15:01:11;14.13;;;6.30;;
2604;SDS011;1312;50.298;8.520;2024-01-25T15:03:41;15.50;;;6.13;;
2604;SDS011;1312;50.298;8.520;2024-01-25T15:06:09;10.47;;;6.60;;